createdAt,value
2019-05-20T00:01:34.221Z,11.50
2019-05-20T00:04:05.566Z,11.40
2019-05-20T00:06:36.757Z,11.40
2019-05-20T00:09:08.564Z,11.40
2019-05-20T00:11:39.853Z,11.40
2019-05-20T00:14:11.155Z,11.40
2019-05-20T00:16:42.556Z,11.40
2019-05-20T00:19:13.865Z,11.40
2019-05-20T00:21:45.203Z,11.30
2019-05-20T00:24:16.479Z,11.30
2019-05-20T00:26:47.716Z,11.30
2019-05-20T00:29:18.971Z,11.40
2019-05-20T00:31:50.241Z,11.40
2019-05-20T00:34:34.154Z,11.30
2019-05-20T00:36:54.418Z,11.30
2019-05-20T00:39:25.705Z,11.30
2019-05-20T00:41:56.944Z,11.20
2019-05-20T00:44:28.236Z,11.20
2019-05-20T00:46:59.530Z,11.20
2019-05-20T00:49:30.804Z,11.20
2019-05-20T00:52:02.122Z,11.20
2019-05-20T00:57:04.654Z,11.20
2019-05-20T00:59:35.923Z,11.20
2019-05-20T01:02:07.215Z,11.20
2019-05-20T01:04:38.472Z,11.20
2019-05-20T01:07:09.906Z,11.20
2019-05-20T01:09:41.176Z,11.20
2019-05-20T01:12:12.417Z,11.20
2019-05-20T01:14:43.762Z,11.20
2019-05-20T01:17:14.970Z,11.30
2019-05-20T01:19:46.240Z,11.30
2019-05-20T01:22:17.468Z,11.40
2019-05-20T01:24:48.763Z,11.50
2019-05-20T01:27:20.008Z,11.50
2019-05-20T01:29:51.271Z,11.50
2019-05-20T01:32:22.514Z,11.60
2019-05-20T01:34:53.756Z,11.60
2019-05-20T01:37:25.015Z,11.60
2019-05-20T01:39:56.197Z,11.50
2019-05-20T01:42:27.429Z,11.50
2019-05-20T01:44:59.717Z,11.40
2019-05-20T01:47:30.941Z,11.40
2019-05-20T01:50:02.229Z,11.40
2019-05-20T01:52:33.482Z,11.40
2019-05-20T01:55:04.851Z,11.40
2019-05-20T01:57:36.102Z,11.50
2019-05-20T02:00:09.204Z,11.50
2019-05-20T02:02:40.436Z,11.40
2019-05-20T02:05:11.884Z,11.40
2019-05-20T02:07:43.054Z,11.50
2019-05-20T02:10:15.026Z,11.50
2019-05-20T02:12:46.270Z,11.60
2019-05-20T02:15:28.169Z,11.70
2019-05-20T02:17:59.426Z,11.70
2019-05-20T02:20:30.719Z,11.80
2019-05-20T02:23:15.758Z,12.00
2019-05-20T02:25:49.892Z,12.20
2019-05-20T02:28:21.157Z,12.30
2019-05-20T02:30:56.189Z,12.40
2019-05-20T02:33:25.293Z,12.50
2019-05-20T02:35:56.550Z,12.60
2019-05-20T02:38:27.801Z,12.60
2019-05-20T02:40:59.098Z,12.70
2019-05-20T02:43:30.327Z,12.80
2019-05-20T02:46:01.624Z,12.80
2019-05-20T02:48:32.816Z,12.80
2019-05-20T02:51:04.103Z,12.80
2019-05-20T02:53:35.357Z,12.80
2019-05-20T02:56:06.767Z,12.70
2019-05-20T02:58:38.081Z,12.70
2019-05-20T03:01:09.286Z,12.70
2019-05-20T03:03:40.541Z,12.70
2019-05-20T03:06:12.071Z,12.60
2019-05-20T03:08:43.380Z,12.60
2019-05-20T03:11:14.541Z,12.60
2019-05-20T03:13:45.836Z,12.60
2019-05-20T03:16:16.991Z,12.70
2019-05-20T03:18:48.293Z,12.70
2019-05-20T03:21:19.556Z,12.70
2019-05-20T03:23:50.819Z,12.70
2019-05-20T03:26:22.056Z,12.80
2019-05-20T03:28:53.344Z,12.80
2019-05-20T03:31:24.613Z,12.90
2019-05-20T03:33:55.871Z,12.90
2019-05-20T03:36:27.156Z,12.90
2019-05-20T03:38:58.438Z,12.90
2019-05-20T03:41:29.690Z,13.00
2019-05-20T03:44:00.944Z,13.00
2019-05-20T03:46:32.169Z,13.00
2019-05-20T03:49:03.450Z,13.10
2019-05-20T03:51:34.719Z,13.10
2019-05-20T03:54:05.874Z,13.10
2019-05-20T03:56:37.142Z,13.20
2019-05-20T03:59:08.421Z,13.20
2019-05-20T04:01:39.684Z,13.30
2019-05-20T04:04:11.017Z,13.20
2019-05-20T04:06:42.239Z,13.30
2019-05-20T04:09:13.542Z,13.30
2019-05-20T04:11:44.786Z,13.40
2019-05-20T04:14:16.487Z,13.40
2019-05-20T04:16:47.637Z,13.40
2019-05-20T04:19:18.928Z,13.60
2019-05-20T04:21:50.244Z,13.60
2019-05-20T04:24:21.542Z,13.60
2019-05-20T04:26:59.427Z,13.70
2019-05-20T04:29:30.724Z,13.70
2019-05-20T04:32:01.954Z,13.70
2019-05-20T04:34:33.907Z,13.80
2019-05-20T04:37:05.139Z,13.90
2019-05-20T04:39:36.357Z,13.90
2019-05-20T04:42:09.942Z,13.90
2019-05-20T04:44:41.261Z,13.90
2019-05-20T04:47:12.488Z,13.90
2019-05-20T04:49:43.739Z,13.90
2019-05-20T04:52:15.015Z,14.00
2019-05-20T04:54:46.311Z,14.00
2019-05-20T04:57:17.605Z,14.00
2019-05-20T04:59:48.890Z,14.10
2019-05-20T05:02:20.059Z,14.10
2019-05-20T05:04:51.324Z,14.10
2019-05-20T05:07:22.672Z,14.20
2019-05-20T05:09:54.086Z,14.20
2019-05-20T05:12:25.254Z,14.20
2019-05-20T05:14:57.800Z,14.10
2019-05-20T05:17:30.151Z,14.10
2019-05-20T05:20:04.076Z,14.20
2019-05-20T05:22:35.546Z,14.30
2019-05-20T05:25:10.998Z,14.30
2019-05-20T05:27:41.987Z,14.40
2019-05-20T05:30:15.289Z,14.50
2019-05-20T05:32:46.638Z,14.60
2019-05-20T05:35:18.730Z,14.60
2019-05-20T05:37:50.180Z,14.70
2019-05-20T05:40:24.374Z,14.70
2019-05-20T05:42:55.685Z,14.80
2019-05-20T05:45:33.341Z,14.80
2019-05-20T05:48:04.524Z,14.80
2019-05-20T05:50:37.434Z,14.80
2019-05-20T05:53:08.693Z,14.90
2019-05-20T05:55:40.116Z,14.90
2019-05-20T05:58:11.409Z,14.80
2019-05-20T06:00:42.663Z,14.90
2019-05-20T06:03:13.960Z,14.90
2019-05-20T06:05:45.197Z,14.90
2019-05-20T06:08:16.566Z,14.90
2019-05-20T06:10:47.775Z,14.90
2019-05-20T06:13:18.963Z,15.00
2019-05-20T06:15:50.244Z,15.10
2019-05-20T06:18:21.499Z,15.30
2019-05-20T06:20:52.762Z,15.40
2019-05-20T06:23:23.998Z,15.40
2019-05-20T06:25:55.247Z,15.40
2019-05-20T06:28:26.524Z,15.40
2019-05-20T06:30:57.879Z,15.40
2019-05-20T06:33:29.294Z,15.40
2019-05-20T06:36:00.598Z,15.40
2019-05-20T06:38:57.492Z,15.40
2019-05-20T06:41:28.812Z,15.40
2019-05-20T06:44:00.098Z,15.30
2019-05-20T06:46:31.408Z,15.30
2019-05-20T06:49:02.669Z,15.30
2019-05-20T06:51:33.870Z,15.20
2019-05-20T06:54:05.230Z,15.20
2019-05-20T06:56:36.525Z,15.20
2019-05-20T06:59:07.812Z,15.30
2019-05-20T07:01:39.086Z,15.40
2019-05-20T07:04:10.406Z,15.40
2019-05-20T07:06:46.792Z,15.40
2019-05-20T07:09:14.596Z,15.40
2019-05-20T07:11:52.660Z,15.40
2019-05-20T07:14:19.866Z,15.30
2019-05-20T07:16:51.130Z,15.50
2019-05-20T07:19:25.599Z,15.60
2019-05-20T07:21:56.948Z,15.80
2019-05-20T07:24:28.170Z,15.90
2019-05-20T07:26:59.447Z,16.10
2019-05-20T07:29:30.715Z,16.20
2019-05-20T07:32:01.901Z,16.20
2019-05-20T07:34:33.141Z,16.30
2019-05-20T07:37:04.431Z,16.30
2019-05-20T07:39:35.743Z,16.20
2019-05-20T07:42:07.112Z,16.20
2019-05-20T07:44:38.341Z,16.20
2019-05-20T07:47:11.276Z,16.50
2019-05-20T07:49:43.485Z,16.80
2019-05-20T07:52:15.161Z,17.00
2019-05-20T07:54:47.189Z,17.00
2019-05-20T07:57:21.709Z,17.30
2019-05-20T07:59:56.273Z,17.50
2019-05-20T08:02:27.945Z,17.60
2019-05-20T08:04:59.179Z,17.50
2019-05-20T08:07:50.283Z,17.60
2019-05-20T08:10:03.573Z,17.50
2019-05-20T08:12:34.799Z,17.50
2019-05-20T08:15:08.492Z,17.70
2019-05-20T08:17:39.741Z,17.70
2019-05-20T08:20:11.559Z,17.50
2019-05-20T08:22:42.799Z,17.30
2019-05-20T08:25:14.376Z,17.30
2019-05-20T08:27:45.904Z,17.40
2019-05-20T08:30:22.406Z,17.40
2019-05-20T08:32:53.696Z,17.50
2019-05-20T08:35:25.036Z,17.50
2019-05-20T08:37:56.310Z,17.40
2019-05-20T08:40:27.543Z,17.20
2019-05-20T08:42:58.875Z,17.10
2019-05-20T08:45:30.182Z,17.00
2019-05-20T08:48:01.383Z,16.80
2019-05-20T08:50:32.641Z,16.70
2019-05-20T08:53:03.933Z,16.80
2019-05-20T08:55:35.203Z,16.90
2019-05-20T08:58:06.508Z,16.90
2019-05-20T09:00:37.811Z,16.70
2019-05-20T09:03:10.194Z,16.60
2019-05-20T09:05:41.477Z,16.40
2019-05-20T09:08:12.751Z,16.20
2019-05-20T09:10:43.933Z,16.20
2019-05-20T09:13:15.211Z,16.20
2019-05-20T09:15:46.627Z,16.20
2019-05-20T09:18:17.825Z,16.40
2019-05-20T09:20:49.066Z,16.60
2019-05-20T09:23:20.326Z,16.80
2019-05-20T09:25:51.613Z,17.00
2019-05-20T09:28:23.337Z,17.30
2019-05-20T09:30:55.047Z,17.50
2019-05-20T09:33:27.030Z,17.50
2019-05-20T09:35:59.019Z,17.60
2019-05-20T09:38:30.302Z,17.80
2019-05-20T09:41:01.620Z,18.30
2019-05-20T09:43:32.945Z,18.50
2019-05-20T09:46:08.036Z,18.60
2019-05-20T09:48:37.062Z,18.70
2019-05-20T09:51:08.384Z,18.80
2019-05-20T09:53:39.594Z,19.20
2019-05-20T09:56:10.987Z,19.70
2019-05-20T09:58:42.262Z,20.30
2019-05-20T10:01:13.648Z,20.50
2019-05-20T10:03:44.894Z,20.20
2019-05-20T10:06:16.065Z,19.80
2019-05-20T10:08:47.277Z,19.50
2019-05-20T10:11:18.584Z,19.40
2019-05-20T10:13:49.856Z,19.20
2019-05-20T10:16:21.212Z,19.30
2019-05-20T10:18:55.335Z,19.40
2019-05-20T10:21:28.440Z,19.60
2019-05-20T10:23:59.640Z,19.90
2019-05-20T10:26:30.925Z,19.90
2019-05-20T10:29:02.321Z,19.60
2019-05-20T10:31:33.698Z,19.50
2019-05-20T10:34:04.974Z,19.70
2019-05-20T10:36:36.296Z,19.50
2019-05-20T10:39:08.916Z,19.50
2019-05-20T10:41:40.179Z,19.60
2019-05-20T10:44:11.501Z,19.60
2019-05-20T10:46:42.769Z,19.50
2019-05-20T10:49:14.015Z,19.20
2019-05-20T10:51:45.303Z,19.10
2019-05-20T10:54:16.457Z,19.00
2019-05-20T10:56:47.919Z,18.90
2019-05-20T10:59:19.191Z,19.00
2019-05-20T11:01:50.376Z,19.00
2019-05-20T11:04:23.699Z,19.00
2019-05-20T11:06:54.630Z,18.90
2019-05-20T11:09:25.870Z,18.90
2019-05-20T11:11:57.175Z,19.00
2019-05-20T11:14:31.115Z,18.70
2019-05-20T11:17:02.453Z,18.60
2019-05-20T11:19:33.794Z,18.50
2019-05-20T11:22:06.377Z,18.50
2019-05-20T11:24:37.670Z,18.60
2019-05-20T11:27:10.985Z,18.60
2019-05-20T11:29:42.270Z,18.60
2019-05-20T11:32:13.563Z,18.50
2019-05-20T11:34:44.876Z,18.40
2019-05-20T11:37:16.148Z,18.50
2019-05-20T11:39:47.440Z,18.60
2019-05-20T11:42:18.693Z,18.60
2019-05-20T11:44:49.922Z,18.70
2019-05-20T11:47:21.204Z,18.70
2019-05-20T11:49:52.462Z,18.60
2019-05-20T11:52:23.701Z,18.60
2019-05-20T11:54:55.022Z,18.50
2019-05-20T11:57:26.394Z,18.40
2019-05-20T11:59:57.679Z,18.30
2019-05-20T12:02:28.914Z,18.10
2019-05-20T12:05:00.168Z,18.10
2019-05-20T12:07:31.356Z,18.10
2019-05-20T12:10:02.650Z,18.20
2019-05-20T12:12:36.168Z,18.10
2019-05-20T12:15:08.679Z,18.10
2019-05-20T12:17:40.030Z,18.20
2019-05-20T12:20:12.727Z,18.20
2019-05-20T12:22:44.216Z,18.10
2019-05-20T12:25:15.643Z,18.20
2019-05-20T12:27:46.892Z,18.30
2019-05-20T12:30:18.597Z,18.40
2019-05-20T12:32:49.856Z,18.30
2019-05-20T12:35:21.659Z,18.20
2019-05-20T12:37:52.980Z,18.20
2019-05-20T12:40:24.489Z,18.20
2019-05-20T12:42:55.708Z,18.20
2019-05-20T12:45:29.285Z,18.20
2019-05-20T12:48:00.555Z,18.20
2019-05-20T12:50:31.853Z,18.20
2019-05-20T12:53:03.120Z,18.40
2019-05-20T12:55:34.469Z,18.40
2019-05-20T12:58:05.746Z,18.50
2019-05-20T13:00:36.980Z,18.60
2019-05-20T13:03:08.388Z,18.70
2019-05-20T13:05:39.698Z,18.70
2019-05-20T13:08:10.969Z,18.60
2019-05-20T13:10:42.244Z,18.50
2019-05-20T13:13:13.495Z,18.50
2019-05-20T13:15:44.792Z,18.40
2019-05-20T13:18:16.035Z,18.20
2019-05-20T13:20:47.264Z,18.10
2019-05-20T13:23:18.505Z,18.00
2019-05-20T13:25:49.834Z,18.10
2019-05-20T13:28:22.866Z,18.50
2019-05-20T13:30:54.154Z,18.90
2019-05-20T13:33:28.314Z,19.00
2019-05-20T13:35:59.516Z,18.70
2019-05-20T13:38:30.784Z,18.60
2019-05-20T13:41:02.033Z,18.50
2019-05-20T13:43:33.578Z,18.40
2019-05-20T13:46:04.745Z,18.50
2019-05-20T13:48:36.018Z,18.80
2019-05-20T13:51:10.095Z,18.80
2019-05-20T13:53:41.478Z,18.80
2019-05-20T13:56:12.737Z,18.70
2019-05-20T13:58:46.218Z,18.60
2019-05-20T14:01:17.461Z,18.40
2019-05-20T14:03:50.831Z,18.40
2019-05-20T14:06:22.130Z,18.50
2019-05-20T14:08:53.442Z,18.50
2019-05-20T14:11:34.255Z,18.40
2019-05-20T14:14:00.352Z,18.30
2019-05-20T14:16:31.632Z,18.10
2019-05-20T14:19:02.924Z,18.00
2019-05-20T14:21:34.179Z,17.90
2019-05-20T14:24:05.395Z,17.90
2019-05-20T14:26:36.781Z,17.90
2019-05-20T14:29:08.059Z,18.10
2019-05-20T14:31:39.382Z,18.40
2019-05-20T14:34:10.760Z,18.60
2019-05-20T14:36:42.035Z,18.70
2019-05-20T14:39:13.376Z,18.90
2019-05-20T14:41:44.580Z,19.10
2019-05-20T14:44:15.814Z,19.10
2019-05-20T14:46:47.121Z,19.10
2019-05-20T14:49:18.367Z,19.50
2019-05-20T14:51:49.668Z,19.40
2019-05-20T14:54:20.915Z,19.40
2019-05-20T14:56:52.255Z,19.40
2019-05-20T14:59:23.621Z,19.60
2019-05-20T15:01:54.929Z,19.90
2019-05-20T15:04:26.171Z,19.70
2019-05-20T15:06:57.428Z,19.50
2019-05-20T15:09:28.704Z,19.40
2019-05-20T15:11:59.861Z,19.30
2019-05-20T15:14:31.155Z,19.30
2019-05-20T15:17:02.418Z,19.50
2019-05-20T15:19:33.709Z,19.40
2019-05-20T15:22:05.125Z,19.10
2019-05-20T15:24:36.304Z,19.10
2019-05-20T15:27:07.668Z,19.00
2019-05-20T15:29:38.900Z,18.90
2019-05-20T15:32:10.152Z,18.80
2019-05-20T15:34:41.399Z,18.70
2019-05-20T15:37:12.813Z,18.60
2019-05-20T15:39:44.194Z,18.60
2019-05-20T15:42:15.380Z,18.60
2019-05-20T15:44:46.602Z,18.60
2019-05-20T15:47:18.884Z,18.60
2019-05-20T15:49:50.548Z,18.70
2019-05-20T15:52:21.876Z,18.80
2019-05-20T15:54:56.324Z,18.80
2019-05-20T15:57:27.587Z,18.60
2019-05-20T15:59:59.004Z,18.50
2019-05-20T16:02:30.378Z,18.40
2019-05-20T16:05:01.636Z,18.30
2019-05-20T16:07:32.902Z,18.20
2019-05-20T16:10:04.523Z,18.20
2019-05-20T16:12:35.852Z,18.30
2019-05-20T16:15:07.938Z,18.50
2019-05-20T16:17:39.057Z,18.40
2019-05-20T16:20:10.731Z,18.20
2019-05-20T16:22:42.014Z,18.20
2019-05-20T16:25:13.695Z,18.30
2019-05-20T16:27:44.982Z,18.30
2019-05-20T16:30:16.394Z,18.30
2019-05-20T16:32:47.796Z,18.30
2019-05-20T16:35:19.024Z,18.30
2019-05-20T16:37:50.288Z,18.30
2019-05-20T16:40:22.019Z,18.20
2019-05-20T16:42:53.790Z,18.20
2019-05-20T16:45:25.199Z,18.10
2019-05-20T16:47:56.502Z,18.10
2019-05-20T16:50:31.777Z,18.00
2019-05-20T16:53:07.192Z,17.90
2019-05-20T16:55:38.605Z,17.90
2019-05-20T16:58:09.805Z,17.80
2019-05-20T17:00:41.107Z,17.80
2019-05-20T17:03:12.504Z,17.90
2019-05-20T17:05:43.762Z,17.90
2019-05-20T17:08:15.039Z,17.80
2019-05-20T17:10:46.352Z,17.80
2019-05-20T17:13:17.632Z,17.80
2019-05-20T17:15:51.400Z,17.90
2019-05-20T17:18:22.703Z,17.90
2019-05-20T17:20:54.091Z,17.90
2019-05-20T17:23:25.498Z,17.80
2019-05-20T17:25:56.857Z,17.80
2019-05-20T17:28:28.114Z,17.70
2019-05-20T17:30:59.434Z,17.70
2019-05-20T17:33:30.647Z,17.70
2019-05-20T17:36:02.362Z,17.70
2019-05-20T17:38:33.615Z,17.70
2019-05-20T17:41:04.904Z,17.60
2019-05-20T17:43:36.484Z,17.50
2019-05-20T17:46:07.868Z,17.50
2019-05-20T17:48:39.115Z,17.50
2019-05-20T17:51:10.398Z,17.50
2019-05-20T17:53:41.746Z,17.40
2019-05-20T17:56:13.231Z,17.40
2019-05-20T17:58:44.942Z,17.30
2019-05-20T18:01:16.435Z,17.20
2019-05-20T18:03:50.069Z,17.20
2019-05-20T18:06:22.617Z,17.20
2019-05-20T18:08:59.559Z,17.20
2019-05-20T18:11:31.053Z,17.10
2019-05-20T18:14:02.562Z,17.10
2019-05-20T18:16:34.055Z,17.00
2019-05-20T18:19:07.846Z,17.00
2019-05-20T18:21:41.452Z,17.00
2019-05-20T18:24:12.899Z,17.00
2019-05-20T18:26:45.888Z,17.10
2019-05-20T18:29:17.376Z,17.00
2019-05-20T18:31:49.003Z,17.00
2019-05-20T18:34:23.251Z,17.00
2019-05-20T18:36:54.597Z,16.90
2019-05-20T18:39:25.894Z,16.90
2019-05-20T18:42:05.509Z,16.80
2019-05-20T18:44:36.626Z,16.80
2019-05-20T18:47:07.949Z,16.80
2019-05-20T18:49:46.603Z,16.80
2019-05-20T18:52:19.824Z,16.70
2019-05-20T18:54:51.095Z,16.70
2019-05-20T18:57:22.374Z,16.70
2019-05-20T18:59:56.032Z,16.70
2019-05-20T19:02:27.390Z,16.60
2019-05-20T19:04:58.512Z,16.60
2019-05-20T19:07:29.776Z,16.60
2019-05-20T19:10:01.123Z,16.60
2019-05-20T19:12:32.384Z,16.60
2019-05-20T19:15:10.491Z,16.60
2019-05-20T19:17:41.862Z,16.60
2019-05-20T19:20:14.979Z,16.60
2019-05-20T19:22:54.121Z,16.60
2019-05-20T19:25:36.997Z,16.50
2019-05-20T19:27:58.342Z,16.50
2019-05-20T19:33:05.840Z,16.40
2019-05-20T19:35:37.613Z,16.40
2019-05-20T19:38:08.936Z,16.40
2019-05-20T19:40:40.340Z,16.30
2019-05-20T19:43:11.618Z,16.30
2019-05-20T19:45:43.023Z,16.30
2019-05-20T19:48:14.334Z,16.20
2019-05-20T19:50:52.018Z,16.20
2019-05-20T19:53:23.454Z,16.20
2019-05-20T19:55:54.770Z,16.20
2019-05-20T19:58:31.263Z,16.20
2019-05-20T20:01:02.493Z,16.20
2019-05-20T20:03:33.806Z,16.30
2019-05-20T20:06:11.154Z,16.20
2019-05-20T20:08:44.547Z,16.20
2019-05-20T20:11:15.960Z,16.10
2019-05-20T20:13:47.337Z,16.10
2019-05-20T20:16:18.651Z,16.10
2019-05-20T20:18:50.061Z,16.00
2019-05-20T20:21:22.266Z,16.00
2019-05-20T20:23:53.675Z,16.00
2019-05-20T20:26:25.112Z,15.90
2019-05-20T20:28:56.469Z,15.90
2019-05-20T20:31:27.822Z,15.90
2019-05-20T20:33:59.141Z,15.80
2019-05-20T20:36:30.489Z,15.80
2019-05-20T20:39:02.013Z,15.90
2019-05-20T20:41:33.422Z,15.80
2019-05-20T20:44:04.998Z,15.80
2019-05-20T20:46:36.339Z,15.70
2019-05-20T20:49:07.570Z,15.70
2019-05-20T20:51:42.029Z,15.70
2019-05-20T20:54:13.373Z,15.60
2019-05-20T20:56:44.627Z,15.60
2019-05-20T20:59:15.844Z,15.60
2019-05-20T21:01:47.207Z,15.60
2019-05-20T21:04:18.378Z,15.50
2019-05-20T21:06:49.615Z,15.40
2019-05-20T21:09:20.952Z,15.40
2019-05-20T21:11:52.205Z,15.40
2019-05-20T21:14:23.453Z,15.40
2019-05-20T21:16:54.713Z,15.30
2019-05-20T21:19:26.233Z,15.30
2019-05-20T21:21:57.532Z,15.20
2019-05-20T21:24:28.799Z,15.20
2019-05-20T21:27:00.026Z,15.20
2019-05-20T21:29:32.613Z,15.10
2019-05-20T21:32:04.378Z,15.10
2019-05-20T21:34:35.781Z,15.10
2019-05-20T21:37:07.587Z,15.20
2019-05-20T21:39:43.065Z,15.10
2019-05-20T21:42:14.365Z,15.10
2019-05-20T21:44:48.866Z,15.00
2019-05-20T21:47:21.486Z,15.00
2019-05-20T21:49:54.132Z,15.00
2019-05-20T21:52:27.589Z,15.00
2019-05-20T21:55:00.410Z,15.00
2019-05-20T21:57:33.177Z,15.00
2019-05-20T22:00:04.466Z,15.00
2019-05-20T22:02:36.582Z,14.90
2019-05-20T22:05:10.185Z,14.90
2019-05-20T22:07:46.022Z,15.00
2019-05-20T22:10:21.745Z,14.90
2019-05-20T22:12:54.005Z,14.90
2019-05-20T22:15:26.429Z,14.90
2019-05-20T22:17:57.682Z,14.90
2019-05-20T22:20:28.820Z,14.90
2019-05-20T22:23:33.208Z,14.90
2019-05-20T22:26:04.373Z,14.90
2019-05-20T22:28:37.882Z,14.90
2019-05-20T22:31:09.153Z,14.80
2019-05-20T22:33:42.579Z,14.90
2019-05-20T22:36:13.424Z,14.80
2019-05-20T22:38:44.724Z,14.80
2019-05-20T22:41:15.923Z,14.70
2019-05-20T22:43:52.535Z,14.70
2019-05-20T22:46:27.020Z,14.70
2019-05-20T22:48:58.435Z,14.70
2019-05-20T22:51:29.690Z,14.60
2019-05-20T22:54:01.029Z,14.60
2019-05-20T22:56:32.269Z,14.50
2019-05-20T22:59:03.545Z,14.50
2019-05-20T23:01:34.816Z,14.40
2019-05-20T23:04:06.142Z,14.40
2019-05-20T23:06:37.459Z,14.30
2019-05-20T23:09:10.830Z,14.20
2019-05-20T23:11:41.955Z,14.20
2019-05-20T23:14:14.139Z,14.10
2019-05-20T23:16:45.417Z,14.10
2019-05-20T23:19:16.644Z,14.10
2019-05-20T23:21:47.996Z,14.10
2019-05-20T23:24:20.021Z,14.00
2019-05-20T23:26:52.468Z,13.90
2019-05-20T23:29:23.783Z,13.90
2019-05-20T23:31:56.965Z,13.90
2019-05-20T23:34:28.389Z,13.90
2019-05-20T23:36:59.715Z,13.90
2019-05-20T23:39:30.958Z,13.80
2019-05-20T23:42:02.268Z,13.80
2019-05-20T23:44:33.555Z,13.80
2019-05-20T23:47:06.113Z,13.70
2019-05-20T23:49:40.207Z,13.70
2019-05-20T23:52:14.172Z,13.70
2019-05-20T23:54:47.881Z,13.60
2019-05-20T23:57:19.079Z,13.60
2019-05-20T23:59:50.318Z,13.60
